createdAt,value
2022-09-30T00:02:07.989Z,20.24
2022-09-30T00:04:38.231Z,20.29
2022-09-30T00:07:08.363Z,20.36
2022-09-30T00:09:38.643Z,20.41
2022-09-30T00:12:08.733Z,20.46
2022-09-30T00:14:39.728Z,20.52
2022-09-30T00:17:09.679Z,20.56
2022-09-30T00:19:39.698Z,20.62
2022-09-30T00:22:09.835Z,20.68
2022-09-30T00:24:39.761Z,20.72
2022-09-30T00:27:09.845Z,20.77
2022-09-30T00:29:40.066Z,20.86
2022-09-30T00:32:10.124Z,20.93
2022-09-30T00:34:40.243Z,20.97
2022-09-30T00:37:10.674Z,21.01
2022-09-30T00:39:40.828Z,21.05
2022-09-30T00:42:16.962Z,21.13
2022-09-30T00:44:54.562Z,21.20
2022-09-30T00:47:29.947Z,21.26
2022-09-30T00:50:12.372Z,21.30
2022-09-30T00:52:45.102Z,21.33
2022-09-30T00:55:28.771Z,21.38
2022-09-30T00:58:01.053Z,21.43
2022-09-30T01:00:31.857Z,21.49
2022-09-30T01:03:02.920Z,21.54
2022-09-30T01:05:36.163Z,21.60
2022-09-30T01:08:10.417Z,21.67
2022-09-30T01:10:41.002Z,21.72
2022-09-30T01:13:12.588Z,21.77
2022-09-30T01:16:08.192Z,21.84
2022-09-30T01:18:55.137Z,21.89
2022-09-30T01:21:42.098Z,21.97
2022-09-30T01:24:24.306Z,22.01
2022-09-30T01:27:33.121Z,22.08
2022-09-30T01:30:12.041Z,22.17
2022-09-30T01:32:50.574Z,22.22
2022-09-30T01:35:32.101Z,22.28
2022-09-30T01:38:03.180Z,22.35
2022-09-30T01:40:49.892Z,22.40
2022-09-30T01:43:42.659Z,22.47
2022-09-30T01:46:22.160Z,22.53
2022-09-30T01:48:58.427Z,22.59
2022-09-30T01:51:42.096Z,22.64
2022-09-30T01:54:18.450Z,22.70
2022-09-30T01:56:55.850Z,22.74
2022-09-30T01:59:34.039Z,22.79
2022-09-30T02:02:09.584Z,22.86
2022-09-30T02:04:47.678Z,22.90
2022-09-30T02:07:34.591Z,22.97
2022-09-30T02:10:18.872Z,23.01
2022-09-30T02:12:58.939Z,23.05
2022-09-30T02:15:40.339Z,23.12
2022-09-30T02:18:26.882Z,23.18
2022-09-30T02:21:03.931Z,23.24
2022-09-30T02:23:44.570Z,23.30
2022-09-30T02:26:26.844Z,23.34
2022-09-30T02:29:10.429Z,23.39
2022-09-30T02:31:41.972Z,23.46
2022-09-30T02:34:26.565Z,23.53
2022-09-30T02:37:21.601Z,23.58
2022-09-30T02:40:07.154Z,23.62
2022-09-30T02:42:37.547Z,23.65
2022-09-30T02:45:17.604Z,23.70
2022-09-30T02:48:06.458Z,23.73
2022-09-30T02:50:48.917Z,23.78
2022-09-30T02:53:22.230Z,23.86
2022-09-30T02:56:04.407Z,23.89
2022-09-30T02:58:38.438Z,23.92
2022-09-30T03:01:12.309Z,23.97
2022-09-30T03:04:01.893Z,24.03
2022-09-30T03:06:31.992Z,24.06
2022-09-30T03:09:02.631Z,24.10
2022-09-30T03:11:34.202Z,24.14
2022-09-30T03:14:25.705Z,24.18
2022-09-30T03:16:55.809Z,24.23
2022-09-30T03:19:52.958Z,24.27
2022-09-30T03:23:31.347Z,24.34
2022-09-30T03:26:18.397Z,24.38
2022-09-30T03:29:05.599Z,24.43
2022-09-30T03:31:55.125Z,24.45
2022-09-30T03:34:40.576Z,24.47
2022-09-30T03:37:33.130Z,24.51
2022-09-30T03:40:28.088Z,24.55
2022-09-30T03:43:27.153Z,24.60
2022-09-30T03:46:24.187Z,24.61
2022-09-30T03:49:01.028Z,24.64
2022-09-30T03:51:31.421Z,24.67
2022-09-30T03:54:01.665Z,24.69
2022-09-30T03:56:33.360Z,24.73
2022-09-30T03:59:03.597Z,24.76
2022-09-30T04:01:33.821Z,24.76
2022-09-30T04:04:03.991Z,24.82
2022-09-30T04:06:34.265Z,24.86
2022-09-30T04:09:04.346Z,24.89
2022-09-30T04:11:34.334Z,24.91
2022-09-30T04:14:04.855Z,24.95
2022-09-30T04:16:35.621Z,24.98
2022-09-30T04:19:06.313Z,25.02
2022-09-30T04:21:37.040Z,25.04
2022-09-30T04:24:07.664Z,25.09
2022-09-30T04:26:37.734Z,25.11
2022-09-30T04:29:07.954Z,25.14
2022-09-30T04:31:38.734Z,25.17
2022-09-30T04:34:09.493Z,25.19
2022-09-30T04:36:40.375Z,25.22
2022-09-30T04:39:10.822Z,25.24
2022-09-30T04:41:42.010Z,25.27
2022-09-30T04:44:12.379Z,25.30
2022-09-30T04:46:42.515Z,25.31
2022-09-30T04:49:12.529Z,25.35
2022-09-30T04:51:45.352Z,25.40
2022-09-30T04:54:17.810Z,25.43
2022-09-30T04:56:47.889Z,25.46
2022-09-30T04:59:18.677Z,25.51
2022-09-30T05:01:48.995Z,25.54
2022-09-30T05:04:19.617Z,25.59
2022-09-30T05:06:51.013Z,25.62
2022-09-30T05:09:22.243Z,25.66
2022-09-30T05:11:53.288Z,25.69
2022-09-30T05:14:24.291Z,25.72
2022-09-30T05:16:54.671Z,25.76
2022-09-30T05:19:24.244Z,25.80
2022-09-30T05:21:54.924Z,25.83
2022-09-30T05:24:25.768Z,25.86
2022-09-30T05:26:55.809Z,25.87
2022-09-30T05:29:26.006Z,25.89
2022-09-30T05:31:56.633Z,25.91
2022-09-30T05:34:27.005Z,25.94
2022-09-30T05:36:59.233Z,25.98
2022-09-30T05:39:29.564Z,26.00
2022-09-30T05:42:02.842Z,26.06
2022-09-30T05:44:33.059Z,26.09
2022-09-30T05:47:04.896Z,26.09
2022-09-30T05:49:36.273Z,26.11
2022-09-30T05:52:06.818Z,26.14
2022-09-30T05:54:37.314Z,26.17
2022-09-30T05:57:09.536Z,26.20
2022-09-30T05:59:39.712Z,26.23
2022-09-30T06:02:12.177Z,26.28
2022-09-30T06:04:42.696Z,26.30
2022-09-30T06:07:12.667Z,26.34
2022-09-30T06:09:43.082Z,26.36
2022-09-30T06:12:13.347Z,26.39
2022-09-30T06:14:43.734Z,26.43
2022-09-30T06:17:13.991Z,26.44
2022-09-30T06:19:44.580Z,26.47
2022-09-30T06:22:14.749Z,26.50
2022-09-30T06:24:44.321Z,26.52
2022-09-30T06:27:14.734Z,26.56
2022-09-30T06:29:44.933Z,26.58
2022-09-30T06:32:15.783Z,26.61
2022-09-30T06:34:46.977Z,26.61
2022-09-30T06:37:17.566Z,26.66
2022-09-30T06:39:47.877Z,26.68
2022-09-30T06:42:18.760Z,26.70
2022-09-30T06:44:53.403Z,26.73
2022-09-30T06:47:25.807Z,26.75
2022-09-30T06:50:01.073Z,26.76
2022-09-30T06:52:31.127Z,26.78
2022-09-30T06:55:01.205Z,26.81
2022-09-30T06:57:32.603Z,26.81
2022-09-30T07:00:02.906Z,26.82
2022-09-30T07:02:35.877Z,26.86
2022-09-30T07:05:06.207Z,26.89
2022-09-30T07:07:37.306Z,26.91
2022-09-30T07:10:08.948Z,26.92
2022-09-30T07:12:40.006Z,26.93
2022-09-30T07:15:13.738Z,26.95
2022-09-30T07:17:45.454Z,26.95
2022-09-30T07:20:16.232Z,26.97
2022-09-30T07:22:47.769Z,26.99
2022-09-30T07:25:18.859Z,27.00
2022-09-30T07:27:49.455Z,27.01
2022-09-30T07:30:26.802Z,27.04
2022-09-30T07:32:57.273Z,27.05
2022-09-30T07:35:28.166Z,27.05
2022-09-30T07:37:58.184Z,27.03
2022-09-30T07:40:32.880Z,27.02
2022-09-30T07:43:03.065Z,27.02
2022-09-30T07:45:33.159Z,27.02
2022-09-30T07:48:03.507Z,27.02
2022-09-30T07:50:33.633Z,27.03
2022-09-30T07:53:03.580Z,27.03
2022-09-30T07:55:33.545Z,27.02
2022-09-30T07:58:03.569Z,27.01
2022-09-30T08:00:48.969Z,27.02
2022-09-30T08:03:19.722Z,27.05
2022-09-30T08:05:49.989Z,27.04
2022-09-30T08:08:20.973Z,27.02
2022-09-30T08:10:50.964Z,27.00
2022-09-30T08:13:21.516Z,26.99
2022-09-30T08:15:51.561Z,26.97
2022-09-30T08:18:22.428Z,26.95
2022-09-30T08:20:52.642Z,26.95
2022-09-30T08:23:22.809Z,26.93
2022-09-30T08:25:52.788Z,26.91
2022-09-30T08:28:23.045Z,26.90
2022-09-30T08:30:53.186Z,26.88
2022-09-30T08:33:23.226Z,26.85
2022-09-30T08:35:53.438Z,26.82
2022-09-30T08:38:23.649Z,26.80
2022-09-30T08:41:22.425Z,26.76
2022-09-30T08:44:04.441Z,26.75
2022-09-30T08:46:58.275Z,26.70
2022-09-30T08:49:28.535Z,26.65
2022-09-30T08:52:02.420Z,26.61
2022-09-30T08:54:40.031Z,26.58
2022-09-30T08:57:14.591Z,26.54
2022-09-30T09:00:03.162Z,26.53
2022-09-30T09:02:42.168Z,26.54
2022-09-30T09:05:21.968Z,26.51
2022-09-30T09:08:06.839Z,26.48
2022-09-30T09:11:12.577Z,26.41
2022-09-30T09:14:02.164Z,26.36
2022-09-30T09:16:45.131Z,26.31
2022-09-30T09:19:19.306Z,26.27
2022-09-30T09:21:55.936Z,26.22
2022-09-30T09:24:41.094Z,26.16
2022-09-30T09:27:32.952Z,26.09
2022-09-30T09:30:09.461Z,26.03
2022-09-30T09:32:40.071Z,25.97
2022-09-30T09:35:36.075Z,25.90
2022-09-30T09:38:31.222Z,25.85
2022-09-30T09:41:35.174Z,25.79
2022-09-30T09:44:14.506Z,25.73
2022-09-30T09:46:53.290Z,25.67
2022-09-30T09:49:25.371Z,25.60
2022-09-30T09:52:08.424Z,25.60
2022-09-30T09:54:54.212Z,25.57
2022-09-30T09:57:33.588Z,25.51
2022-09-30T10:00:31.222Z,25.46
2022-09-30T10:03:29.390Z,25.39
2022-09-30T10:06:05.637Z,25.34
2022-09-30T10:08:41.411Z,25.27
2022-09-30T10:11:27.213Z,25.20
2022-09-30T10:14:02.477Z,25.13
2022-09-30T10:16:39.531Z,25.08
2022-09-30T10:19:29.085Z,25.00
2022-09-30T10:22:11.194Z,24.94
2022-09-30T10:24:42.088Z,24.88
2022-09-30T10:27:33.281Z,24.84
2022-09-30T10:30:03.652Z,24.75
2022-09-30T10:32:34.687Z,24.70
2022-09-30T10:35:23.436Z,24.67
2022-09-30T10:37:56.589Z,24.63
2022-09-30T10:40:31.074Z,24.59
2022-09-30T10:43:01.358Z,24.55
2022-09-30T10:45:39.525Z,24.51
2022-09-30T10:48:20.851Z,24.46
2022-09-30T10:50:58.393Z,24.43
2022-09-30T10:53:36.092Z,24.38
2022-09-30T10:56:09.512Z,24.34
2022-09-30T10:58:51.395Z,24.31
2022-09-30T11:02:00.018Z,24.28
2022-09-30T11:04:36.858Z,24.25
2022-09-30T11:07:28.540Z,24.24
2022-09-30T11:10:11.541Z,24.19
2022-09-30T11:13:07.389Z,24.14
2022-09-30T11:16:21.925Z,24.12
2022-09-30T11:19:13.225Z,24.07
2022-09-30T11:21:55.341Z,24.01
2022-09-30T11:24:48.726Z,23.97
2022-09-30T11:27:30.867Z,23.94
2022-09-30T11:30:23.488Z,23.90
2022-09-30T11:33:11.573Z,23.87
2022-09-30T11:36:20.706Z,23.81
2022-09-30T11:39:45.517Z,23.76
2022-09-30T11:42:21.711Z,23.70
2022-09-30T11:45:18.136Z,23.69
2022-09-30T11:48:16.913Z,23.65
2022-09-30T11:50:58.805Z,23.62
2022-09-30T11:53:34.672Z,23.60
2022-09-30T11:56:18.090Z,23.58
2022-09-30T11:58:54.741Z,23.56
2022-09-30T12:01:46.980Z,23.53
2022-09-30T12:04:33.020Z,23.48
2022-09-30T12:07:08.301Z,23.46
2022-09-30T12:10:05.971Z,23.43
2022-09-30T12:12:36.627Z,23.39
2022-09-30T12:15:09.400Z,23.37
2022-09-30T12:17:52.573Z,23.34
2022-09-30T12:20:54.513Z,23.32
2022-09-30T12:23:37.925Z,23.27
2022-09-30T12:26:09.445Z,23.23
2022-09-30T12:29:06.015Z,23.19
2022-09-30T12:31:59.467Z,23.15
2022-09-30T12:35:06.573Z,23.13
2022-09-30T12:38:01.076Z,23.12
2022-09-30T12:41:05.068Z,23.06
2022-09-30T12:43:44.180Z,23.02
2022-09-30T12:46:37.490Z,22.99
2022-09-30T12:49:17.028Z,22.97
2022-09-30T12:51:51.577Z,22.94
2022-09-30T12:54:32.828Z,22.91
2022-09-30T12:57:07.539Z,22.87
2022-09-30T12:59:40.902Z,22.86
2022-09-30T13:02:34.326Z,22.85
2022-09-30T13:05:28.746Z,22.82
2022-09-30T13:08:07.849Z,22.79
2022-09-30T13:10:40.542Z,22.75
2022-09-30T13:13:13.541Z,22.72
2022-09-30T13:15:47.801Z,22.69
2022-09-30T13:18:25.229Z,22.65
2022-09-30T13:21:08.073Z,22.62
2022-09-30T13:23:42.618Z,22.61
2022-09-30T13:26:46.494Z,22.61
2022-09-30T13:29:19.399Z,22.59
2022-09-30T13:31:52.437Z,22.57
2022-09-30T13:34:35.039Z,22.56
2022-09-30T13:37:29.087Z,22.56
2022-09-30T13:40:01.864Z,22.54
2022-09-30T13:42:43.634Z,22.51
2022-09-30T13:45:26.176Z,22.50
2022-09-30T13:48:12.933Z,22.48
2022-09-30T13:50:51.906Z,22.46
2022-09-30T13:53:35.050Z,22.42
2022-09-30T13:56:19.668Z,22.41
2022-09-30T13:58:54.238Z,22.38
2022-09-30T14:01:40.290Z,22.37
2022-09-30T14:04:34.949Z,22.35
2022-09-30T14:07:27.629Z,22.34
2022-09-30T14:10:38.365Z,22.35
2022-09-30T14:13:30.511Z,22.33
2022-09-30T14:16:14.614Z,22.35
2022-09-30T14:18:55.392Z,22.33
2022-09-30T14:21:54.026Z,22.34
2022-09-30T14:24:36.524Z,22.37
2022-09-30T14:27:25.786Z,22.37
2022-09-30T14:30:12.065Z,22.36
2022-09-30T14:32:57.300Z,22.35
2022-09-30T14:35:33.812Z,22.32
2022-09-30T14:38:06.829Z,22.34
2022-09-30T14:40:42.805Z,22.35
2022-09-30T14:43:22.870Z,22.35
2022-09-30T14:45:59.283Z,22.37
2022-09-30T14:48:34.678Z,22.39
2022-09-30T14:51:11.036Z,22.41
2022-09-30T14:54:07.628Z,22.44
2022-09-30T14:56:40.591Z,22.46
2022-09-30T14:59:29.617Z,22.48
2022-09-30T15:02:22.500Z,22.48
2022-09-30T15:05:01.014Z,22.47
2022-09-30T15:07:32.949Z,22.46
2022-09-30T15:10:04.417Z,22.47
2022-09-30T15:12:39.537Z,22.48
2022-09-30T15:15:43.666Z,22.48
2022-09-30T15:18:27.883Z,22.48
2022-09-30T15:21:02.057Z,22.48
2022-09-30T15:23:35.507Z,22.50
2022-09-30T15:26:08.399Z,22.49
2022-09-30T15:28:39.425Z,22.50
2022-09-30T15:31:26.867Z,22.52
2022-09-30T15:34:27.410Z,22.52
2022-09-30T15:37:08.238Z,22.52
2022-09-30T15:40:05.641Z,22.51
2022-09-30T15:42:38.873Z,22.48
2022-09-30T15:45:35.377Z,22.47
2022-09-30T15:48:22.545Z,22.47
2022-09-30T15:50:55.526Z,22.45
2022-09-30T15:53:39.242Z,22.47
2022-09-30T15:56:32.208Z,22.47
2022-09-30T15:59:04.153Z,22.46
2022-09-30T16:01:52.920Z,22.46
2022-09-30T16:04:25.910Z,22.45
2022-09-30T16:07:02.103Z,22.46
2022-09-30T16:09:34.813Z,22.47
2022-09-30T16:12:17.628Z,22.48
2022-09-30T16:14:57.488Z,22.47
2022-09-30T16:17:29.751Z,22.46
2022-09-30T16:20:03.037Z,22.46
2022-09-30T16:22:42.745Z,22.47
2022-09-30T16:25:35.023Z,22.46
2022-09-30T16:28:14.223Z,22.46
2022-09-30T16:30:49.344Z,22.44
2022-09-30T16:33:19.877Z,22.44
2022-09-30T16:35:50.600Z,22.42
2022-09-30T16:38:21.537Z,22.43
2022-09-30T16:40:52.424Z,22.41
2022-09-30T16:43:24.219Z,22.38
2022-09-30T16:45:54.886Z,22.37
2022-09-30T16:48:26.876Z,22.35
2022-09-30T16:51:07.317Z,22.34
2022-09-30T16:53:38.714Z,22.31
2022-09-30T16:56:16.376Z,22.28
2022-09-30T16:58:47.483Z,22.24
2022-09-30T17:01:26.177Z,22.22
2022-09-30T17:03:58.201Z,22.20
2022-09-30T17:06:33.177Z,22.19
2022-09-30T17:09:04.943Z,22.15
2022-09-30T17:11:37.134Z,22.11
2022-09-30T17:14:07.891Z,22.11
2022-09-30T17:16:39.679Z,22.09
2022-09-30T17:19:10.561Z,22.08
2022-09-30T17:21:42.813Z,22.06
2022-09-30T17:24:13.134Z,22.04
2022-09-30T17:26:44.618Z,22.03
2022-09-30T17:29:31.279Z,22.02
2022-09-30T17:32:02.447Z,22.00
2022-09-30T17:34:32.749Z,22.00
2022-09-30T17:37:02.880Z,21.99
2022-09-30T17:39:32.906Z,21.99
2022-09-30T17:42:40.983Z,21.98
2022-09-30T17:45:11.801Z,21.99
2022-09-30T17:47:42.722Z,21.99
2022-09-30T17:50:14.453Z,21.99
2022-09-30T17:52:44.727Z,21.98
2022-09-30T17:55:14.755Z,21.98
2022-09-30T17:57:44.845Z,21.98
2022-09-30T18:00:15.434Z,21.97
2022-09-30T18:02:46.080Z,21.97
2022-09-30T18:05:16.940Z,21.96
2022-09-30T18:07:48.533Z,21.94
2022-09-30T18:10:18.836Z,21.92
2022-09-30T18:12:53.152Z,21.91
2022-09-30T18:15:24.899Z,21.89
2022-09-30T18:17:55.516Z,21.87
2022-09-30T18:20:26.075Z,21.86
2022-09-30T18:22:56.244Z,21.88
2022-09-30T18:25:26.451Z,21.87
2022-09-30T18:28:00.119Z,21.87
2022-09-30T18:30:30.810Z,21.84
2022-09-30T18:33:01.039Z,21.82
2022-09-30T18:35:32.861Z,21.79
2022-09-30T18:38:04.077Z,21.82
2022-09-30T18:40:35.625Z,21.81
2022-09-30T18:43:06.844Z,21.80
2022-09-30T18:45:39.580Z,21.79
2022-09-30T18:48:11.187Z,21.79
2022-09-30T18:50:41.988Z,21.77
2022-09-30T18:53:14.561Z,21.77
2022-09-30T18:55:45.539Z,21.75
2022-09-30T18:58:20.072Z,21.75
2022-09-30T19:00:50.876Z,21.74
2022-09-30T19:03:21.032Z,21.72
2022-09-30T19:05:51.544Z,21.70
2022-09-30T19:08:21.565Z,21.69
2022-09-30T19:10:53.166Z,21.66
2022-09-30T19:13:29.835Z,21.65
2022-09-30T19:16:06.723Z,21.64
2022-09-30T19:18:38.597Z,21.61
2022-09-30T19:21:14.815Z,21.59
2022-09-30T19:23:45.347Z,21.58
2022-09-30T19:26:16.926Z,21.55
2022-09-30T19:28:47.200Z,21.52
2022-09-30T19:31:19.037Z,21.51
2022-09-30T19:33:56.594Z,21.51
2022-09-30T19:36:28.573Z,21.48
2022-09-30T19:39:11.581Z,21.48
2022-09-30T19:41:43.155Z,21.43
2022-09-30T19:44:15.177Z,21.42
2022-09-30T19:46:46.539Z,21.42
2022-09-30T19:49:17.132Z,21.40
2022-09-30T19:51:47.620Z,21.40
2022-09-30T19:54:18.004Z,21.38
2022-09-30T19:56:48.706Z,21.37
2022-09-30T19:59:19.345Z,21.35
2022-09-30T20:01:49.833Z,21.32
2022-09-30T20:04:20.908Z,21.33
2022-09-30T20:06:52.178Z,21.31
2022-09-30T20:09:21.750Z,21.30
2022-09-30T20:11:51.776Z,21.28
2022-09-30T20:14:40.267Z,21.27
2022-09-30T20:17:11.629Z,21.28
2022-09-30T20:19:41.536Z,21.27
2022-09-30T20:22:11.692Z,21.26
2022-09-30T20:24:41.804Z,21.26
2022-09-30T20:27:13.594Z,21.24
2022-09-30T20:29:43.570Z,21.25
2022-09-30T20:32:13.546Z,21.24
2022-09-30T20:34:43.929Z,21.20
2022-09-30T20:37:14.082Z,21.17
2022-09-30T20:39:44.023Z,21.14
2022-09-30T20:42:14.102Z,21.10
2022-09-30T20:44:47.380Z,21.05
2022-09-30T20:47:19.000Z,21.02
2022-09-30T20:49:49.149Z,20.99
2022-09-30T20:52:19.340Z,20.97
2022-09-30T20:54:49.398Z,20.95
2022-09-30T20:57:19.475Z,20.95
2022-09-30T20:59:49.491Z,20.95
2022-09-30T21:02:19.652Z,20.94
2022-09-30T21:04:52.525Z,20.94
2022-09-30T21:07:23.100Z,20.93
2022-09-30T21:09:53.377Z,20.93
2022-09-30T21:12:23.575Z,20.89
2022-09-30T21:14:53.539Z,20.89
2022-09-30T21:17:22.936Z,20.87
2022-09-30T21:19:52.951Z,20.83
2022-09-30T21:22:23.134Z,20.81
2022-09-30T21:24:53.215Z,20.80
2022-09-30T21:27:23.534Z,20.82
2022-09-30T21:29:53.699Z,20.78
2022-09-30T21:32:23.927Z,20.77
2022-09-30T21:34:54.508Z,20.74
2022-09-30T21:37:24.918Z,20.70
2022-09-30T21:39:55.064Z,20.66
2022-09-30T21:42:25.390Z,20.65
2022-09-30T21:44:55.447Z,20.65
2022-09-30T21:47:25.397Z,20.62
2022-09-30T21:49:55.418Z,20.63
2022-09-30T21:52:28.563Z,20.63
2022-09-30T21:55:01.298Z,20.64
2022-09-30T21:57:31.553Z,20.64
2022-09-30T22:00:01.658Z,20.64
2022-09-30T22:02:31.595Z,20.64
2022-09-30T22:05:01.655Z,20.63
2022-09-30T22:07:31.837Z,20.63
2022-09-30T22:10:02.022Z,20.62
2022-09-30T22:12:34.430Z,20.62
2022-09-30T22:15:04.855Z,20.61
2022-09-30T22:17:34.827Z,20.61
2022-09-30T22:20:04.879Z,20.61
2022-09-30T22:22:35.931Z,20.63
2022-09-30T22:25:06.586Z,20.63
2022-09-30T22:27:36.931Z,20.64
2022-09-30T22:30:08.396Z,20.65
2022-09-30T22:32:39.070Z,20.67
2022-09-30T22:35:27.550Z,20.66
2022-09-30T22:38:16.205Z,20.68
2022-09-30T22:40:47.029Z,20.70
2022-09-30T22:43:18.190Z,20.70
2022-09-30T22:45:49.161Z,20.71
2022-09-30T22:48:19.793Z,20.73
2022-09-30T22:50:50.138Z,20.74
2022-09-30T22:53:20.659Z,20.74
2022-09-30T22:55:50.752Z,20.76
2022-09-30T22:58:22.268Z,20.79
2022-09-30T23:01:00.443Z,20.82
2022-09-30T23:03:30.918Z,20.85
2022-09-30T23:06:06.810Z,20.86
2022-09-30T23:08:43.928Z,20.89
2022-09-30T23:11:20.601Z,20.92
2022-09-30T23:13:49.982Z,20.95
2022-09-30T23:16:20.602Z,20.97
2022-09-30T23:18:50.758Z,20.99
2022-09-30T23:21:21.880Z,21.03
2022-09-30T23:23:52.525Z,21.04
2022-09-30T23:26:28.686Z,21.08
2022-09-30T23:29:01.844Z,21.10
2022-09-30T23:31:33.595Z,21.13
2022-09-30T23:34:05.462Z,21.15
2022-09-30T23:36:36.937Z,21.17
2022-09-30T23:39:13.795Z,21.20
2022-09-30T23:41:46.510Z,21.22
2022-09-30T23:44:20.535Z,21.22
2022-09-30T23:47:09.093Z,21.24
2022-09-30T23:49:40.371Z,21.27
2022-09-30T23:52:13.394Z,21.29
2022-09-30T23:54:44.862Z,21.31
2022-09-30T23:57:15.100Z,21.31
2022-09-30T23:59:45.739Z,21.34
